Meteorología y climatología de Navarra
Datos de la estación - Meteo Navarra

Estación de Gorramendi GN

Altitud 1071 m.


Datos desde el 02/08/2020 hasta el 03/08/2020 en horario solar
Los datos son PROVISIONALES

Anterior Página 1 de 1 Siguiente Descargar: Formato para Excel 2000 o superior   Formato csv   Formato para OpenOffice Calc
Fecha Temperatura Humedad relativa Radiación global Insolación Precipitación Vel. viento 10 m Vel. viento 10 m Dir. viento 10 m
ºC % W/m² s l/m² m/s km/h º
02/08/2020 0:00 12.8 99 0.0 0 0.0 8.2 29.6 35
02/08/2020 0:10 12.8 99 0.0 0 0.0 8.1 29.1 35
02/08/2020 0:20 12.8 99 0.0 0 0.0 8.2 29.3 35
02/08/2020 0:30 12.7 99 0.0 0 0.0 8.3 29.7 38
02/08/2020 0:40 12.6 99 0.0 0 0.0 8.2 29.5 36
02/08/2020 0:50 12.5 99 0.0 0 0.0 8.4 30.2 35
02/08/2020 1:00 12.2 99 0.0 0 0.0 8.1 29.2 35
02/08/2020 1:10 11.9 99 0.0 0 0.0 7.7 27.8 35
02/08/2020 1:20 11.8 99 0.0 0 0.0 8.5 30.5 27
02/08/2020 1:30 12.2 99 0.0 0 0.0 8.2 29.4 23
02/08/2020 1:40 12.3 99 0.0 0 0.0 8.6 31.0 21
02/08/2020 1:50 12.4 99 0.0 0 0.0 8.6 31.0 21
02/08/2020 2:00 12.3 99 0.0 0 0.0 8.3 29.7 25
02/08/2020 2:10 12.4 99 0.0 0 0.0 8.1 29.1 25
02/08/2020 2:20 12.3 99 0.0 0 0.0 8.1 29.1 24
02/08/2020 2:30 12.4 99 0.0 0 0.0 7.2 25.9 25
02/08/2020 2:40 12.5 99 0.0 0 0.0 8.0 28.9 27
02/08/2020 2:50 12.6 99 0.0 0 0.0 9.1 32.7 29
02/08/2020 3:00 12.5 99 0.0 0 0.0 8.4 30.3 16
02/08/2020 3:10 12.4 99 0.0 0 0.0 7.7 27.7 20
02/08/2020 3:20 12.3 99 0.0 0 0.0 8.2 29.5 15
02/08/2020 3:30 12.2 99 0.0 0 0.0 8.9 32.1 21
02/08/2020 3:40 12.2 99 0.0 0 0.0 9.0 32.5 26
02/08/2020 3:50 12.3 99 0.0 0 0.0 8.8 31.5 28
02/08/2020 4:00 12.2 99 0.0 0 0.1 9.1 32.6 28
02/08/2020 4:10 12.3 99 0.0 0 0.0 8.4 30.4 30
02/08/2020 4:20 12.2 99 0.0 0 0.0 8.6 31.0 34
02/08/2020 4:30 12.3 99 0.0 0 0.0 8.7 31.2 28
02/08/2020 4:40 12.4 99 0.0 0 0.0 8.6 30.8 25
02/08/2020 4:50 12.5 99 0.0 0 0.0 7.7 27.8 25
02/08/2020 5:00 12.5 99 0.0 0 0.0 8.6 30.8 25
02/08/2020 5:10 12.1 99 0.0 0 0.0 8.6 30.9 22
02/08/2020 5:20 12.0 99 0.0 0 0.0 8.9 31.9 25
02/08/2020 5:30 12.1 99 3.6 0 0.1 8.5 30.6 22
02/08/2020 5:40 11.9 99 20.4 0 0.0 8.1 29.2 29
02/08/2020 5:50 12.1 99 20.1 0 0.0 7.4 26.7 24
02/08/2020 6:00 12.2 99 19.6 0 0.3 8.9 31.9 20
02/08/2020 6:10 12.0 99 30.5 0 0.0 8.7 31.4 23
02/08/2020 6:20 12.0 99 39.5 0 0.0 8.4 30.3 25
02/08/2020 6:30 11.9 99 66.6 0 0.0 8.4 30.3 26
02/08/2020 6:40 11.9 99 72.5 0 0.0 9.0 32.3 16
02/08/2020 6:50 12.0 99 61.2 0 0.0 8.4 30.2 14
02/08/2020 7:00 12.1 99 66.3 0 0.1 8.7 31.2 15
02/08/2020 7:10 11.9 99 85.7 0 0.0 9.7 35.0 9
02/08/2020 7:20 11.6 99 82.5 0 0.0 9.0 32.4 16
02/08/2020 7:30 11.7 99 63.4 0 0.0 8.8 31.7 17
02/08/2020 7:40 11.8 99 88.6 0 0.0 8.3 29.7 14
02/08/2020 7:50 12.0 99 103.6 0 0.0 8.6 31.1 23
02/08/2020 8:00 11.9 99 153.4 0 0.0 8.6 30.9 20
02/08/2020 8:10 11.8 99 222.1 0 0.0 8.7 31.2 22
02/08/2020 8:20 11.9 99 224.0 18 0.0 9.1 32.9 21
02/08/2020 8:30 11.8 99 171.0 0 0.0 8.7 31.4 16
02/08/2020 8:40 11.9 99 123.4 0 0.0 9.1 32.8 18
02/08/2020 8:50 11.7 99 154.7 0 0.0 8.5 30.5 20
02/08/2020 9:00 11.7 99 201.0 0 0.0 7.7 27.5 20
02/08/2020 9:10 11.9 99 189.2 0 0.0 7.6 27.4 23
02/08/2020 9:20 11.9 99 248.5 0 0.0 7.5 27.1 19
02/08/2020 9:30 11.8 99 166.4 0 0.0 7.7 27.5 15
02/08/2020 9:40 11.6 99 166.7 0 0.0 8.9 31.9 14
02/08/2020 9:50 11.5 99 133.9 0 0.0 8.6 30.9 12
02/08/2020 10:00 11.2 99 193.2 0 0.0 8.8 31.5 14
02/08/2020 10:10 11.4 99 236.5 0 0.0 9.1 32.9 10
02/08/2020 10:20 11.5 99 224.8 0 0.0 9.5 34.2 9
02/08/2020 10:30 11.5 99 185.3 0 0.0 6.8 24.3 17
02/08/2020 10:40 11.7 99 300.3 0 0.0 6.0 21.7 24
02/08/2020 10:50 12.0 99 419.5 58 0.0 6.6 23.8 18
02/08/2020 11:00 12.2 99 339.6 74 0.0 7.7 27.7 14
02/08/2020 11:10 12.1 99 182.5 0 0.0 6.8 24.6 12
02/08/2020 11:20 12.1 99 337.2 0 0.0 5.7 20.6 21
02/08/2020 11:30 12.1 99 327.1 0 0.0 5.6 20.0 22
02/08/2020 11:40 12.3 99 468.2 220 0.0 5.3 19.0 24
02/08/2020 11:50 12.1 99 365.3 4 0.0 5.4 19.3 32
02/08/2020 12:00 11.8 99 242.6 0 0.0 5.4 19.6 33
02/08/2020 12:10 11.6 98 234.5 0 0.0 5.5 19.9 31
02/08/2020 12:20 11.8 97 299.1 0 0.0 6.5 23.3 30
02/08/2020 12:30 12.0 95 500.0 258 0.0 6.1 21.9 35
02/08/2020 12:40 12.7 92 591.1 478 0.0 5.3 19.0 34
02/08/2020 12:50 13.0 92 501.0 296 0.0 6.2 22.1 25
02/08/2020 13:00 13.1 91 297.3 0 0.0 4.9 17.6 25
02/08/2020 13:10 12.9 91 208.2 0 0.0 5.0 18.1 39
02/08/2020 13:20 12.9 93 279.0 0 0.0 5.2 18.8 30
02/08/2020 13:30 13.0 95 296.8 0 0.0 5.9 21.1 25
02/08/2020 13:40 12.9 96 163.1 0 0.0 6.1 22.1 26
02/08/2020 13:50 12.6 96 92.2 0 0.0 7.1 25.5 19
02/08/2020 14:00 12.4 97 111.5 0 0.0 8.2 29.5 14
02/08/2020 14:10 12.5 98 98.7 0 0.0 8.1 29.3 9
02/08/2020 14:20 12.5 98 179.3 0 0.0 8.9 32.0 4
02/08/2020 14:30 12.5 98 437.0 270 0.0 8.6 31.1 8
02/08/2020 14:40 12.7 98 636.4 536 0.0 9.2 33.2 1
02/08/2020 14:50 12.6 97 285.3 52 0.0 7.4 26.7 6
02/08/2020 15:00 12.8 95 489.0 384 0.0 7.8 27.9 19
02/08/2020 15:10 13.0 92 521.0 600 0.0 7.4 26.6 17
02/08/2020 15:20 13.1 90 499.2 600 0.0 7.3 26.2 19
02/08/2020 15:30 13.2 91 390.2 396 0.0 5.8 21.0 6
02/08/2020 15:40 13.1 94 284.6 64 0.0 6.0 21.5 6
02/08/2020 15:50 12.9 95 300.8 202 0.0 6.3 22.5 14
02/08/2020 16:00 12.9 95 306.6 190 0.0 5.8 21.0 13
02/08/2020 16:10 12.9 95 360.3 394 0.0 5.7 20.6 8
02/08/2020 16:20 12.9 94 220.4 96 0.0 6.9 24.8 18
02/08/2020 16:30 12.6 97 220.9 34 0.0 6.0 21.5 23
02/08/2020 16:40 12.6 97 175.7 40 0.0 6.0 21.5 6
02/08/2020 16:50 12.5 98 232.4 200 0.0 6.5 23.5 9
02/08/2020 17:00 12.3 97 173.7 70 0.0 6.9 24.8 4
02/08/2020 17:10 12.3 98 104.8 0 0.0 6.2 22.4 6
02/08/2020 17:20 12.2 98 100.7 22 0.0 7.1 25.6 1
02/08/2020 17:30 12.4 98 229.4 428 0.0 7.4 26.7 1
02/08/2020 17:40 12.2 98 87.2 0 0.0 7.4 26.5 2
02/08/2020 17:50 12.2 98 98.9 0 0.0 7.9 28.6 0
02/08/2020 18:00 12.0 98 108.1 132 0.0 7.7 27.8 358
02/08/2020 18:10 12.0 98 150.1 348 0.0 8.0 28.9 360
02/08/2020 18:20 12.0 98 129.3 436 0.0 7.6 27.3 358
02/08/2020 18:30 11.8 98 128.7 490 0.0 8.7 31.4 5
02/08/2020 18:40 11.7 98 45.8 34 0.0 7.4 26.5 3
02/08/2020 18:50 11.6 98 32.3 0 0.0 6.5 23.4 9
02/08/2020 19:00 11.4 98 25.6 0 0.0 6.3 22.5 10
02/08/2020 19:10 11.5 98 5.1 0 0.0 7.0 25.3 13
02/08/2020 19:20 11.6 99 0.0 0 0.0 7.4 26.7 10
02/08/2020 19:30 11.6 99 0.0 0 0.0 8.0 28.9 18
02/08/2020 19:40 11.5 99 0.0 0 0.0 9.3 33.4 9
02/08/2020 19:50 11.4 98 0.0 0 0.0 9.4 33.9 12
02/08/2020 20:00 11.3 99 0.0 0 0.0 9.2 33.2 11
02/08/2020 20:10 11.4 99 0.0 0 0.0 9.2 33.0 10
02/08/2020 20:20 11.3 99 0.0 0 0.0 9.3 33.3 0
02/08/2020 20:30 11.4 99 0.0 0 0.0 8.7 31.2 2
02/08/2020 20:40 11.4 99 0.0 0 0.0 8.2 29.6 354
02/08/2020 20:50 11.3 99 0.0 0 0.0 6.2 22.4 12
02/08/2020 21:00 11.4 99 0.0 0 0.0 7.8 28.2 31
02/08/2020 21:10 11.4 99 0.0 0 0.1 7.5 26.9 24
02/08/2020 21:20 11.2 99 0.0 0 0.0 7.7 27.8 28
02/08/2020 21:30 11.1 99 0.0 0 0.0 8.1 29.3 26
02/08/2020 21:40 11.0 99 0.0 0 0.0 8.0 28.9 23
02/08/2020 21:50 10.9 99 0.0 0 0.0 7.6 27.2 21
02/08/2020 22:00 10.8 99 0.0 0 0.0 8.7 31.2 21
02/08/2020 22:10 10.8 99 0.0 0 0.0 8.6 30.9 22
02/08/2020 22:20 10.8 99 0.0 0 0.0 7.8 28.2 16
02/08/2020 22:30 10.8 99 0.0 0 0.0 6.9 24.9 24
02/08/2020 22:40 10.7 99 0.0 0 0.0 7.5 27.0 25
02/08/2020 22:50 10.6 99 0.0 0 0.0 7.3 26.4 27
02/08/2020 23:00 10.5 99 0.0 0 0.0 7.4 26.6 27
02/08/2020 23:10 10.5 99 0.0 0 0.0 7.8 28.1 29
02/08/2020 23:20 10.5 99 0.0 0 0.0 8.6 30.8 25
02/08/2020 23:30 10.5 99 0.0 0 0.0 8.4 30.3 20
02/08/2020 23:40 10.6 99 0.0 0 0.0 8.1 29.1 17
02/08/2020 23:50 10.6 99 0.0 0 0.0 8.2 29.5 22
Anterior Página 1 de 1 Siguiente
Los datos de precipitación registrados en estaciones que están en cumbres son inferiores a lo real, como consecuencia del efecto del viento y de la nieve.


NOTA: Tipo de datos según el color:
   - Valores diarios o 10 minutos correctos
   - Valores diarios calculados a partir de un número de datos 10 minutos menor que 144 y mayor que 120, o de un número de datos semihorarios menor que 48 y mayor que 40 (caso de las estaciones de INTIA y del Ministerio)
   - Valores diez minutos estimados


Contacto        Enlaces        Aviso legal